Latest  Newer  Older  Last 2 hours animation  Current image  Latest image 
Rain/snow radar  Infrared sat images 
Real-time lightning map

All time is UTC (add 2 hours to UTC in wintertime, 3 hours to UTC in DST for Latvia local time)

2018/08/19 14:50 EVRA 191450Z 24008KT 210V270 9999 FEW038 21/15 Q1015 NOSIG
2018/08/19 14:50 EVLA 191450Z AUTO 24013KT 210V270 9999 SCT015/// BKN041/// 21/17 Q1016
2018/08/19 14:50 EVVA 191450Z AUTO 23010KT 9999 BKN015 20/17 Q1015
2018/08/19 14:50 EYKA 191450Z 25010KT 220V280 CAVOK 23/12 Q1018
2018/08/19 14:50 EYPA 191450Z 26006KT 220V310 9999 FEW014 BKN041 BKN110 21/16 Q1018
2018/08/19 14:50 EYSA 191450Z 25011KT 9999 BKN049 21/14 Q1018 BLU NOSIG
2018/08/19 14:50 EYVI 191450Z 31009KT CAVOK 22/13 Q1019 NOSIG
2018/08/19 14:50 EEKA 191450Z 26007KT 9999 SCT033 19/11 Q1013
2018/08/19 14:50 EEKE 191450Z 28008KT 240V320 9999 BKN032TCU 21/13 Q1014
2018/08/19 12:50 EEPU 191250Z 23016KT 9999 SCT020 20/16 Q1012
2018/08/19 14:50 EETN 191450Z 26019KT 9999 SCT036 20/12 Q1011 TEMPO 27020G30KT
2018/08/19 14:50 EETU 191450Z AUTO 22011KT 9999 BKN022/// BKN029/// OVC044/// 20/14 Q1013
   RIGA AIRPORT     EVRA               56 55N  023 58E   10   X     T          6 LV
   LIEPAJA INTL     EVLA        26406  56 31N  021 06E    4   X                8 LV
   VENTPILS         EVVA               57 21N  021 33E    6   X                8 LV
   KAUNAS           EYKA               54 54N  023 55E   77   X     T          6 LT
   PALANGA INTL     EYPA               55 55N  021 03E   10   X                6 LT
   SIAULIAI INTL    EYSA               55 54N  023 24E  135   X     T          6 LT
   VILNIUS INTL     EYVI        26730  54 38N  025 17E  197   X     T          6 LT
   KARDLA           EEKA        26116  58 59N  022 50E    4   X                8 EE
   KURESSAARE       EEKE               58 14N  022 31E    4   X                8 EE
   PARNU            EEPU               58 25N  024 28E   14   X                8 EE
   TALLINN          EETN        26038  59 24N  024 49E   40   X     T          8 EE
   TARTU            EETU               58 19N  026 41E   67   X                8 EE

cloud coverage image from sat24.com and METAR data from weather.noaa.gov